ウラジオストク の空港の天気 - METARとTAF

ウラジオストク空港 ( UHWW / VVO ) - ロシア ウラジオストク
飛行場実況気象(Metar)
観測時間07/22 12:00 VLAT (07/22 02:00 UTC)
風向・風速南南東 4m/s
視程10km以上
天気現象
全天の4割程度の雲 雲底高度 240m
全天の8割程度の雲 雲底高度 790m
気温22℃
湿度100%
気圧997hPa
METARUHWW 220200Z 15004MPS 9999 SCT008 BKN026CB 22/22 Q0997 R25L/220158 NOSIG RMK QFE747
過去の天気等 Google飛行場航空写真 Wunderground天気予報

過去48時間のMETAR

飛行場予報(TAF)
発表時間: 7/22 09:00 VLAT (7/21 23:00 UTC)
予報対象時間: 22日10時 VLAT ~ 23日10時 VLAT
風向・風速南東 3m/s
視程3100m
天気現象弱いしゅう雨
全天の8割程度の雲 雲底高度 340m
全天の8割程度の積乱雲 雲底高度 520m
22日10時 VLAT ~ 22日18時 VLAT に一時的に
全天の8割程度の雲 雲底高度 90m
全天の8割程度の積乱雲 雲底高度 370m
22日18時 VLAT ~ 22日20時 VLAT に徐々に
風向・風速西南西 3m/s
視程4000m
天気現象もや
23日1時 VLAT ~ 23日3時 VLAT に徐々に
風向・風速南 3m/s
TAF UHWW 212300Z 2200/2224 13003MPS 3100 -SHRA BKN011 BKN017CB
TEMPO 2200/2208 BKN003 BKN012CB
BECMG 2208/2210 24003MPS 4000 BR
BECMG 2215/2217 18003MPS